Big Bear Station Historical Data
Daily Summary for July 8, 2017 Units:  English    Metric   Both
Next Day »
Daily Weekly Monthly Yearly Custom
  High: Low: Average:
Temperature: 87.3 °F 54.9 °F 66.8 °F
Dew Point: 62.6 °F 40.8 °F 49.9 °F
Humidity: 80% 23% 58%
Wind Speed: 6.8mph 0.0mph 1mph
Wind Gust: -999.0mph - -
Wind- - SW
Pressure: 30.34 in 30.28 in -
Precipitation: 0.05 in    
Historical Graphs
 
 
Tabular Data for July 8, 2017
Time Temperature Dew Point Pressure Wind Wind Speed Wind Gust Humidity Rainfall Rate (Hourly)
00:00 62.2 °F 46.8 °F 30.33 in Calm   -999.0 mph 57% 0 in
00:16 61.9 °F 47.9 °F 30.32 in Calm   -999.0 mph 60% 0 in
00:31 61.3 °F 49.0 °F 30.32 in Calm   -999.0 mph 64% 0 in
00:46 60.8 °F 46.8 °F 30.32 in Calm   -999.0 mph 60% 0 in
01:16 60.1 °F 47.5 °F 30.32 in Calm   -999.0 mph 63% 0 in
01:31 59.7 °F 47.5 °F 30.32 in Calm   -999.0 mph 64% 0 in
01:47 59.4 °F 45.9 °F 30.32 in Calm   -999.0 mph 61% 0 in
02:02 59.0 °F 45.1 °F 30.31 in Calm   -999.0 mph 60% 0 in
02:17 58.3 °F 44.9 °F 30.31 in Calm   -999.0 mph 61% 0 in
02:32 57.9 °F 44.1 °F 30.31 in Calm   -999.0 mph 60% 0 in
02:48 57.7 °F 44.8 °F 30.31 in Calm   -999.0 mph 62% 0 in
03:03 57.6 °F 46.7 °F 30.31 in Calm   -999.0 mph 67% 0 in
03:18 57.0 °F 45.4 °F 30.31 in Calm   -999.0 mph 65% 0 in
03:33 57.0 °F 46.2 °F 30.31 in Calm   -999.0 mph 67% 0 in
03:48 56.7 °F 45.1 °F 30.31 in Calm   -999.0 mph 65% 0 in
04:04 56.3 °F 44.7 °F 30.31 in Calm   -999.0 mph 65% 0 in
04:19 56.1 °F 45.3 °F 30.30 in Calm   -999.0 mph 67% 0 in
04:34 56.1 °F 45.3 °F 30.31 in SSE 2.2 mph -999.0 mph 67% 0 in
04:49 55.6 °F 44.4 °F 30.31 in Calm   -999.0 mph 66% 0 in
05:04 55.2 °F 43.6 °F 30.31 in Calm   -999.0 mph 65% 0 in
05:20 54.9 °F 45.3 °F 30.31 in Calm   -999.0 mph 70% 0 in
05:35 55.2 °F 47.1 °F 30.32 in Calm   -999.0 mph 74% 0 in
05:50 54.9 °F 47.8 °F 30.32 in Calm   -999.0 mph 77% 0 in
06:05 55.0 °F 47.9 °F 30.32 in Calm   -999.0 mph 77% 0 in
06:20 54.9 °F 47.1 °F 30.32 in Calm   -999.0 mph 75% 0 in
06:36 55.0 °F 45.4 °F 30.32 in Calm   -999.0 mph 70% 0 in
06:51 54.9 °F 45.7 °F 30.32 in Calm   -999.0 mph 71% 0 in
07:06 55.8 °F 48.7 °F 30.33 in Calm   -999.0 mph 77% 0 in
07:21 56.5 °F 49.0 °F 30.33 in Calm   -999.0 mph 76% 0 in
07:37 57.4 °F 50.2 °F 30.33 in Calm   -999.0 mph 77% 0 in
07:52 58.6 °F 51.4 °F 30.33 in NW 1.1 mph -999.0 mph 77% 0 in
08:07 60.6 °F 52.6 °F 30.33 in Calm   -999.0 mph 75% 0 in
08:22 62.6 °F 53.8 °F 30.33 in Calm   -999.0 mph 73% 0 in
08:37 64.9 °F 52.0 °F 30.33 in Calm   -999.0 mph 63% 0 in
08:53 67.1 °F 52.8 °F 30.33 in Calm   -999.0 mph 60% 0 in
09:08 68.5 °F 50.7 °F 30.33 in Calm   -999.0 mph 53% 0 in
09:23 70.9 °F 46.7 °F 30.33 in Calm   -999.0 mph 42% 0 in
09:38 75.9 °F 47.0 °F 30.33 in Calm   -999.0 mph 36% 0 in
09:53 78.1 °F 43.3 °F 30.33 in NNW 2.7 mph -999.0 mph 29% 0 in
10:09 80.2 °F 43.2 °F 30.33 in NNW 2.7 mph -999.0 mph 27% 0 in
10:24 81.0 °F 40.8 °F 30.33 in NW 2.7 mph -999.0 mph 24% 0 in
10:39 82.4 °F 40.9 °F 30.33 in NW 3.2 mph -999.0 mph 23% 0 in
10:54 84.2 °F 44.6 °F 30.33 in SSE 2.7 mph -999.0 mph 25% 0 in
11:09 86.5 °F 46.5 °F 30.32 in NNE 2.7 mph -999.0 mph 25% 0 in
11:25 87.3 °F 48.2 °F 30.33 in NNE 3.2 mph -999.0 mph 26% 0 in
11:40 84.2 °F 45.6 °F 30.32 in North 3.7 mph -999.0 mph 26% 0 in
11:55 83.8 °F 44.2 °F 30.33 in WNW 1.7 mph -999.0 mph 25% 0 in
12:10 82.8 °F 45.4 °F 30.33 in NNE 1.7 mph -999.0 mph 27% 0 in
12:25 82.6 °F 53.0 °F 30.33 in NNW 2.7 mph -999.0 mph 36% 0 in
12:41 82.9 °F 46.5 °F 30.33 in WNW 2.7 mph -999.0 mph 28% 0 in
12:56 79.0 °F 56.5 °F 30.33 in South 2.2 mph -999.0 mph 46% 0 in
13:11 75.2 °F 52.4 °F 30.32 in SSW 2.2 mph -999.0 mph 45% 0 in
13:27 71.2 °F 54.2 °F 30.33 in ESE 3.7 mph -999.0 mph 55% 0 in
13:42 71.1 °F 49.9 °F 30.32 in SSW 4.7 mph -999.0 mph 47% 0 in
13:57 70.7 °F 52.2 °F 30.32 in NNW 2.7 mph -999.0 mph 52% 0 in
14:13 69.8 °F 52.4 °F 30.32 in NW 1.7 mph -999.0 mph 54% 0 in
14:28 64.2 °F 55.7 °F 30.32 in South 4.7 mph -999.0 mph 74% 0 in
14:44 63.1 °F 55.8 °F 30.33 in South 3.7 mph -999.0 mph 77% 0 in
14:59 62.6 °F 56.0 °F 30.34 in Calm   -999.0 mph 79% 0 in
15:14 62.6 °F 56.0 °F 30.33 in South 3.2 mph -999.0 mph 79% 0 in
15:29 62.4 °F 56.1 °F 30.33 in SSE 2.2 mph -999.0 mph 80% 0 in
15:45 63.0 °F 56.4 °F 30.32 in Calm   -999.0 mph 79% 0 in
16:00 63.7 °F 56.7 °F 30.32 in Calm   -999.0 mph 78% 0 in
16:15 65.3 °F 57.5 °F 30.31 in Calm   -999.0 mph 76% 0 in
16:30 68.4 °F 59.4 °F 30.31 in Calm   -999.0 mph 73% 0 in
16:46 70.7 °F 60.4 °F 30.30 in Calm   -999.0 mph 70% 0 in
17:01 73.8 °F 62.6 °F 30.30 in Calm   -999.0 mph 68% 0 in
17:16 80.4 °F 55.2 °F 30.29 in South 2.2 mph -999.0 mph 42% 0 in
17:31 86.0 °F 52.7 °F 30.28 in NW 2.7 mph -999.0 mph 32% 0 in
17:46 83.8 °F 57.6 °F 30.28 in Calm   -999.0 mph 41% 0 in
18:02 82.4 °F 55.7 °F 30.28 in Calm   -999.0 mph 40% 0 in
18:17 85.8 °F 51.7 °F 30.28 in NNW 6.8 mph -999.0 mph 31% 0 in
18:32 84.0 °F 51.0 °F 30.28 in SSW 1.7 mph -999.0 mph 32% 0 in
18:47 80.6 °F 51.9 °F 30.28 in West 3.2 mph -999.0 mph 37% 0 in
19:02 77.0 °F 52.8 °F 30.28 in West 1.7 mph -999.0 mph 43% 0 in
19:18 76.1 °F 53.2 °F 30.29 in Calm   -999.0 mph 45% 0 in
19:48 70.2 °F 53.8 °F 30.29 in South 2.2 mph -999.0 mph 56% 0 in
20:03 69.3 °F 51.9 °F 30.29 in Calm   -999.0 mph 54% 0 in
20:18 67.3 °F 52.9 °F 30.29 in Calm   -999.0 mph 60% 0 in
20:34 65.8 °F 53.3 °F 30.30 in SE 1.7 mph -999.0 mph 64% 0 in
20:49 64.9 °F 53.3 °F 30.30 in South 1.7 mph -999.0 mph 66% 0 in
21:04 63.9 °F 51.5 °F 30.30 in Calm   -999.0 mph 64% 0 in
21:20 63.0 °F 50.6 °F 30.30 in Calm   -999.0 mph 64% 0 in
21:35 62.2 °F 50.7 °F 30.31 in Calm   -999.0 mph 66% 0 in
21:50 61.7 °F 51.4 °F 30.31 in Calm   -999.0 mph 69% 0 in
22:06 61.2 °F 51.3 °F 30.32 in Calm   -999.0 mph 70% 0 in
22:21 60.6 °F 50.0 °F 30.32 in Calm   -999.0 mph 68% 0 in
22:36 60.3 °F 49.7 °F 30.32 in Calm   -999.0 mph 68% 0 in
23:06 59.5 °F 48.9 °F 30.32 in Calm   -999.0 mph 68% 0 in
23:22 59.0 °F 49.6 °F 30.32 in Calm   -999.0 mph 71% 0 in
23:37 58.6 °F 48.8 °F 30.32 in Calm   -999.0 mph 70% 0 in
23:52 58.1 °F 48.7 °F 30.32 in Calm   -999.0 mph 71% 0 in
Big Bear CA Weather